SAOC/RCU METAR and TAF weather

Enter ICAO airport designator
Station Type Date Time Source
SAOC METAR 2020/04/06 11:00 UTC NOAA

SAOC 061100Z 23008KT CAVOK 12/05 Q1024


Station Type Date Time Source
SAOC Decoded METAR 2020/04/06 11:00 UTC NOAA

Rio Cuarto Aerodrome, Argentina (SAOC) 33-07S 064-14W 421M
Apr 06, 2020 - 07:00 AM EDT / 2020.04.06 1100 UTC
Wind: from the SW (230 degrees) at 9 MPH (8 KT):0
Visibility: greater than 7 mile(s):0
Temperature: 53 F (12 C)
Dew Point: 41 F (5 C)
Relative Humidity: 62%
Pressure (altimeter): 30.24 in. Hg (1024 hPa)
ob: SAOC 061100Z 23008KT CAVOK 12/05 Q1024
cycle: 11

Station Type Date Time Source
SAOC TAF 2020/03/24 00:33 UTC NOAA

TAF SAOC 242300Z 2500/2524 36015KT CAVOK TX24/2519Z TN17/2510Z
BECMG 2502/2505 18020KT 4000 TSRA SCT010 BKN020 FEW040CB

Example: see airport list